Huvudsida
METAR-TAF:

METAR-TAF

Flygplatser :

Grenchen, Schweiz

latitud: 47-10-53N, longitud: 007-24-59E, höjd: 430 m

Aktuellt väderrapport

Denna rapport gjordes för 29 minuter sedan, klockan 07:50 UTC
Vind 2 kt från ost/nordost
Temperatur 8°C
Fuktighet 66%
Tryck 1023 hPa
Sikt 10 km eller mer
Inga moln under 1 500 m eller inga cumulonimbus

METAR: LSZG 050750Z 06002KT CAVOK 08/02 Q1023 NOSIG

Tid: 10:19 (08:19 UTC)

Väderprognos

Denna rapport gjordes för 2 timmar och 54 minuter sedan, klockan 05:25 UTC
Prognos gäller från 05 kl. 06 UTC till 05 kl. 15 UTC
Vind 3 kt varierande vindriktning
Sikt 10 km eller mer
Inga moln under 1 500 m eller inga cumulonimbus
Blir
från 05 kl. 07 UTC till 05 kl. 10 UTC
Vind 7 kt från ost/nordost

TAF: LSZG 050525Z 0506/0515 VRB03KT CAVOK BECMG 0507/0510 07007KT

Aktuella väderrapporter och prognoser från 4000 flygplatser (METAR- och TAF-rapporter).

De tillgängliga stationerna syns som gula och röda prickar på kartan.

För musen över prickarna för att se namnen på stationerna.

Klicka sedan för att få väderrapporter och prognoser.

För att ändra kartan: Klicka på de gröna knapparna med ett svart kors på för att zooma in; den gröna knappen med ett streck på för att zooma ut; eller på de gröna pilarna för angränsande kartor.


METAR-TAF: